PWSweather.com
Personal Weather Stations
Station Observations

MakarauRodneyNZ

Lat: -36.52421, Lon: 174.47572

Elevation: 606

Station Type: Davis VP2

http://kaiparaweather.dynu.net/index.php

High Low Average
Temperature 54.1°F12.3°F 44.6°F7.0°F 51.1°F10.6°F
Dew Point 53.2°F11.8°F 41.7°F5.4°F 48.3°F9.1°F
Winds 16.1 mph -25.9 mph - Calm Calm 4.1 mph 6.6 mph
Wind Gusts 20.7 mph33.3 mph -- 7.6 mph12.2 mph
Humidity 97% 78% 90%
Pressure 29.90 in1012.50 in 29.78 in1008.50 in -
Precipitation 0.83 in21.10 in - -
Hour Temp Dew Point Humidity Winds Wind Gusts Pressure Precip Precip Rate Daily Precip Total
12:00 AM 52.5°F11.4°C 50.8°F10.4°C 94% 1.2 mph NE1.9 kmh NE 3.5 mph5.6 kmh 29.89 in1012.2 mb - 0.00 in0.0 mm 0.00 in0.0 mm
12:10 AM 52.4°F11.3°C 50.7°F10.4°C 94% 2.3 mph NNE3.7 kmh NNE 5.8 mph9.3 kmh 29.89 in1012.2 mb - 0.00 in0.0 mm 0.00 in0.0 mm
12:20 AM 52.4°F11.3°C 50.7°F10.4°C 94% 1.2 mph ENE1.9 kmh ENE 2.3 mph3.7 kmh 29.89 in1012.2 mb - 0.00 in0.0 mm 0.00 in0.0 mm
12:30 AM 52.5°F11.4°C 50.8°F10.4°C 94% 4.6 mph NNE7.4 kmh NNE 9.2 mph14.8 kmh 29.89 in1012.2 mb - 0.01 in0.3 mm 0.01 in0.3 mm
12:40 AM 52.5°F11.4°C 50.8°F10.4°C 94% 1.2 mph NE1.9 kmh NE 4.6 mph7.4 kmh 29.88 in1011.9 mb - 0.01 in0.3 mm 0.01 in0.3 mm
12:50 AM 52.3°F11.3°C 50.6°F10.3°C 94% Calm Calm 1.2 mph1.9 kmh 29.87 in1011.5 mb - 0.00 in0.0 mm 0.01 in0.3 mm
01:00 AM 52.4°F11.3°C 50.7°F10.4°C 94% Calm Calm 3.5 mph5.6 kmh 29.87 in1011.5 mb - 0.00 in0.0 mm 0.01 in0.3 mm
01:10 AM 52.5°F11.4°C 50.8°F10.4°C 94% 2.3 mph ENE3.7 kmh ENE 8.1 mph13.0 kmh 29.86 in1011.2 mb - 0.00 in0.0 mm 0.01 in0.3 mm
01:20 AM 52.5°F11.4°C 50.8°F10.4°C 94% 2.3 mph NE3.7 kmh NE 3.5 mph5.6 kmh 29.86 in1011.2 mb - 0.00 in0.0 mm 0.01 in0.3 mm
01:30 AM 52.3°F11.3°C 50.7°F10.4°C 94% Calm Calm 1.2 mph1.9 kmh 29.85 in1010.8 mb - 0.00 in0.0 mm 0.01 in0.3 mm
01:40 AM 52.3°F11.3°C 50.6°F10.3°C 94% Calm Calm 2.3 mph3.7 kmh 29.85 in1010.8 mb - 0.00 in0.0 mm 0.01 in0.3 mm
01:50 AM 52.4°F11.3°C 50.7°F10.4°C 94% Calm Calm -- 29.86 in1011.2 mb - 0.00 in0.0 mm 0.01 in0.3 mm
02:00 AM 52.4°F11.3°C 50.7°F10.4°C 94% 1.2 mph NNW1.9 kmh NNW 18.4 mph29.6 kmh 29.88 in1011.9 mb - 0.06 in1.5 mm 0.07 in1.8 mm
02:10 AM 52.3°F11.3°C 50.6°F10.3°C 94% Calm Calm 2.3 mph3.7 kmh 29.88 in1011.9 mb - 0.13 in3.3 mm 0.19 in4.8 mm
02:20 AM 52.0°F11.1°C 50.3°F10.2°C 94% 2.3 mph WSW3.7 kmh WSW 4.6 mph7.4 kmh 29.88 in1011.9 mb - 0.03 in0.8 mm 0.21 in5.3 mm
02:30 AM 51.6°F10.9°C 49.9°F9.9°C 94% Calm Calm -- 29.86 in1011.2 mb - 0.01 in0.3 mm 0.22 in5.6 mm
02:40 AM 51.8°F11.0°C 50.4°F10.2°C 95% Calm Calm 1.2 mph1.9 kmh 29.86 in1011.2 mb - 0.00 in0.0 mm 0.22 in5.6 mm
02:50 AM 51.9°F11.1°C 50.5°F10.3°C 95% Calm Calm -- 29.86 in1011.2 mb - 0.00 in0.0 mm 0.22 in5.6 mm
03:00 AM 51.7°F10.9°C 50.3°F10.2°C 95% Calm Calm -- 29.86 in1011.2 mb - 0.01 in0.3 mm 0.23 in5.8 mm
03:10 AM 51.6°F10.9°C 50.2°F10.1°C 95% Calm Calm -- 29.85 in1010.8 mb - 0.00 in0.0 mm 0.23 in5.8 mm
03:20 AM 51.5°F10.8°C 50.1°F10.1°C 95% Calm Calm -- 29.84 in1010.5 mb - 0.00 in0.0 mm 0.23 in5.8 mm
03:30 AM 51.6°F10.9°C 50.2°F10.1°C 95% Calm Calm 2.3 mph3.7 kmh 29.85 in1010.8 mb - 0.02 in0.5 mm 0.24 in6.1 mm
03:40 AM 51.6°F10.9°C 50.2°F10.1°C 95% 1.2 mph E1.9 kmh E 2.3 mph3.7 kmh 29.84 in1010.5 mb - 0.00 in0.0 mm 0.24 in6.1 mm
03:50 AM 51.6°F10.9°C 50.2°F10.1°C 95% 1.2 mph NE1.9 kmh NE 2.3 mph3.7 kmh 29.84 in1010.5 mb - 0.00 in0.0 mm 0.24 in6.1 mm
04:00 AM 51.7°F10.9°C 50.3°F10.2°C 95% 1.2 mph NE1.9 kmh NE 3.5 mph5.6 kmh 29.83 in1010.2 mb - 0.00 in0.0 mm 0.24 in6.1 mm
04:10 AM 51.8°F11.0°C 50.4°F10.2°C 95% 1.2 mph NE1.9 kmh NE 8.1 mph13.0 kmh 29.83 in1010.2 mb - 0.00 in0.0 mm 0.24 in6.1 mm
04:20 AM 51.6°F10.9°C 50.2°F10.1°C 95% Calm Calm 1.2 mph1.9 kmh 29.83 in1010.2 mb - 0.00 in0.0 mm 0.24 in6.1 mm
04:30 AM 51.5°F10.8°C 50.1°F10.1°C 95% 1.2 mph NE1.9 kmh NE 3.5 mph5.6 kmh 29.82 in1009.8 mb - 0.00 in0.0 mm 0.24 in6.1 mm
04:40 AM 51.4°F10.8°C 50.0°F10.0°C 95% 2.3 mph NNE3.7 kmh NNE 5.8 mph9.3 kmh 29.81 in1009.5 mb - 0.00 in0.0 mm 0.24 in6.1 mm
04:50 AM 51.4°F10.8°C 50.0°F10.0°C 95% Calm Calm 1.2 mph1.9 kmh 29.81 in1009.5 mb - 0.00 in0.0 mm 0.24 in6.1 mm
05:00 AM 51.4°F10.8°C 50.0°F10.0°C 95% Calm Calm 3.5 mph5.6 kmh 29.81 in1009.5 mb - 0.00 in0.0 mm 0.24 in6.1 mm
05:10 AM 51.4°F10.8°C 50.3°F10.2°C 96% Calm Calm 4.6 mph7.4 kmh 29.81 in1009.5 mb - 0.01 in0.3 mm 0.25 in6.4 mm
05:20 AM 51.4°F10.8°C 50.0°F10.0°C 95% Calm Calm 1.2 mph1.9 kmh 29.81 in1009.5 mb - 0.00 in0.0 mm 0.25 in6.4 mm
05:30 AM 51.5°F10.8°C 50.4°F10.2°C 96% 1.2 mph NE1.9 kmh NE 2.3 mph3.7 kmh 29.80 in1009.1 mb - 0.00 in0.0 mm 0.25 in6.4 mm
05:40 AM 51.6°F10.9°C 50.5°F10.3°C 96% 1.2 mph NE1.9 kmh NE 4.6 mph7.4 kmh 29.80 in1009.1 mb - 0.00 in0.0 mm 0.25 in6.4 mm
05:50 AM 51.8°F11.0°C 50.7°F10.4°C 96% 1.2 mph NE1.9 kmh NE 3.5 mph5.6 kmh 29.80 in1009.1 mb - 0.00 in0.0 mm 0.25 in6.4 mm
06:00 AM 52.0°F11.1°C 50.8°F10.4°C 96% 2.3 mph NE3.7 kmh NE 4.6 mph7.4 kmh 29.80 in1009.1 mb - 0.00 in0.0 mm 0.25 in6.4 mm
06:10 AM 52.1°F11.2°C 51.0°F10.6°C 96% 1.2 mph E1.9 kmh E 2.3 mph3.7 kmh 29.80 in1009.1 mb - 0.00 in0.0 mm 0.25 in6.4 mm
06:20 AM 52.2°F11.2°C 51.1°F10.6°C 96% 2.3 mph NE3.7 kmh NE 9.2 mph14.8 kmh 29.80 in1009.1 mb - 0.01 in0.3 mm 0.26 in6.6 mm
06:30 AM 52.2°F11.2°C 51.1°F10.6°C 96% Calm Calm 1.2 mph1.9 kmh 29.80 in1009.1 mb - 0.01 in0.3 mm 0.27 in6.9 mm
06:40 AM 52.3°F11.3°C 51.2°F10.7°C 96% 1.2 mph NW1.9 kmh NW 1.2 mph1.9 kmh 29.79 in1008.8 mb - 0.01 in0.3 mm 0.28 in7.1 mm
06:50 AM 52.4°F11.3°C 51.3°F10.7°C 96% 1.2 mph NNE1.9 kmh NNE 5.8 mph9.3 kmh 29.79 in1008.8 mb - 0.00 in0.0 mm 0.28 in7.1 mm
07:00 AM 52.4°F11.3°C 51.3°F10.7°C 96% 2.3 mph NE3.7 kmh NE 11.5 mph18.5 kmh 29.79 in1008.8 mb - 0.02 in0.5 mm 0.29 in7.4 mm
07:10 AM 52.4°F11.3°C 51.3°F10.7°C 96% 1.2 mph ENE1.9 kmh ENE 1.2 mph1.9 kmh 29.79 in1008.8 mb - 0.03 in0.8 mm 0.32 in8.1 mm
07:20 AM 52.5°F11.4°C 51.4°F10.8°C 96% 1.2 mph NE1.9 kmh NE 2.3 mph3.7 kmh 29.79 in1008.8 mb - 0.01 in0.3 mm 0.32 in8.1 mm
07:30 AM 52.4°F11.3°C 51.3°F10.7°C 96% 1.2 mph WSW1.9 kmh WSW 3.5 mph5.6 kmh 29.81 in1009.5 mb - 0.03 in0.8 mm 0.35 in8.9 mm
07:40 AM 52.3°F11.3°C 51.2°F10.7°C 96% 5.8 mph W9.3 kmh W 9.2 mph14.8 kmh 29.81 in1009.5 mb - 0.15 in3.8 mm 0.50 in12.7 mm
07:50 AM 52.0°F11.1°C 50.9°F10.5°C 96% 3.5 mph WSW5.6 kmh WSW 5.8 mph9.3 kmh 29.81 in1009.5 mb - 0.02 in0.5 mm 0.51 in13.0 mm
08:00 AM 51.6°F10.9°C 50.5°F10.3°C 96% 3.5 mph WNW5.6 kmh WNW 3.5 mph5.6 kmh 29.82 in1009.8 mb - 0.02 in0.5 mm 0.54 in13.7 mm
08:10 AM 51.7°F10.9°C 50.6°F10.3°C 96% 2.3 mph NW3.7 kmh NW 6.9 mph11.1 kmh 29.82 in1009.8 mb - 0.02 in0.5 mm 0.55 in14.0 mm
08:20 AM 51.8°F11.0°C 50.7°F10.4°C 96% 3.5 mph WNW5.6 kmh WNW 4.6 mph7.4 kmh 29.82 in1009.8 mb - 0.01 in0.3 mm 0.56 in14.2 mm
08:30 AM 51.7°F10.9°C 50.6°F10.3°C 96% 3.5 mph NW5.6 kmh NW 6.9 mph11.1 kmh 29.82 in1009.8 mb - 0.00 in0.0 mm 0.56 in14.2 mm
08:40 AM 51.5°F10.8°C 50.4°F10.2°C 96% Calm Calm 1.2 mph1.9 kmh 29.81 in1009.5 mb - 0.00 in0.0 mm 0.56 in14.2 mm
08:50 AM 51.5°F10.8°C 50.4°F10.2°C 96% 1.2 mph NNW1.9 kmh NNW 2.3 mph3.7 kmh 29.82 in1009.8 mb - 0.00 in0.0 mm 0.56 in14.2 mm
09:00 AM 51.6°F10.9°C 50.5°F10.3°C 96% 1.2 mph ENE1.9 kmh ENE 3.5 mph5.6 kmh 29.82 in1009.8 mb - 0.00 in0.0 mm 0.56 in14.2 mm
09:10 AM 51.6°F10.9°C 50.5°F10.3°C 96% Calm Calm -- 29.82 in1009.8 mb - 0.00 in0.0 mm 0.56 in14.2 mm
09:20 AM 51.8°F11.0°C 50.7°F10.4°C 96% 1.2 mph NNW1.9 kmh NNW 3.5 mph5.6 kmh 29.82 in1009.8 mb - 0.00 in0.0 mm 0.56 in14.2 mm
09:30 AM 52.0°F11.1°C 50.9°F10.5°C 96% Calm Calm -- 29.82 in1009.8 mb - 0.00 in0.0 mm 0.56 in14.2 mm
09:40 AM 52.3°F11.3°C 51.2°F10.7°C 96% Calm Calm -- 29.82 in1009.8 mb - 0.00 in0.0 mm 0.56 in14.2 mm
09:50 AM 52.2°F11.2°C 51.1°F10.6°C 96% 2.3 mph WSW3.7 kmh WSW 3.5 mph5.6 kmh 29.83 in1010.2 mb - 0.01 in0.3 mm 0.57 in14.5 mm
10:00 AM 51.9°F11.1°C 50.8°F10.4°C 96% 1.2 mph WSW1.9 kmh WSW 3.5 mph5.6 kmh 29.83 in1010.2 mb - 0.02 in0.5 mm 0.58 in14.7 mm
10:10 AM 52.0°F11.1°C 50.9°F10.5°C 96% 1.2 mph NW1.9 kmh NW 3.5 mph5.6 kmh 29.82 in1009.8 mb - 0.01 in0.3 mm 0.59 in15.0 mm
10:20 AM 52.5°F11.4°C 51.4°F10.8°C 96% 2.3 mph NNW3.7 kmh NNW 4.6 mph7.4 kmh 29.82 in1009.8 mb - 0.00 in0.0 mm 0.59 in15.0 mm
10:30 AM 53.2°F11.8°C 52.3°F11.3°C 97% 2.3 mph NNW3.7 kmh NNW 3.5 mph5.6 kmh 29.82 in1009.8 mb - 0.00 in0.0 mm 0.59 in15.0 mm
10:40 AM 54.1°F12.3°C 53.2°F11.8°C 97% 2.3 mph N3.7 kmh N 6.9 mph11.1 kmh 29.82 in1009.8 mb - 0.00 in0.0 mm 0.59 in15.0 mm
10:50 AM 53.7°F12.1°C 52.6°F11.4°C 96% 12.7 mph W20.4 kmh W 16.1 mph25.9 kmh 29.83 in1010.2 mb - 0.00 in0.0 mm 0.59 in15.0 mm
11:00 AM 52.9°F11.6°C 51.8°F11.0°C 96% 9.2 mph WSW14.8 kmh WSW 10.4 mph16.7 kmh 29.83 in1010.2 mb - 0.00 in0.0 mm 0.59 in15.0 mm
11:10 AM 52.2°F11.2°C 50.8°F10.4°C 95% 5.8 mph WSW9.3 kmh WSW 11.5 mph18.5 kmh 29.83 in1010.2 mb - 0.00 in0.0 mm 0.59 in15.0 mm
11:20 AM 52.1°F11.2°C 50.7°F10.4°C 95% 3.5 mph WSW5.6 kmh WSW 11.5 mph18.5 kmh 29.82 in1009.8 mb - 0.00 in0.0 mm 0.59 in15.0 mm
11:30 AM 52.4°F11.3°C 51.0°F10.6°C 95% 5.8 mph WNW9.3 kmh WNW 10.4 mph16.7 kmh 29.82 in1009.8 mb - 0.00 in0.0 mm 0.59 in15.0 mm
11:40 AM 52.2°F11.2°C 50.2°F10.1°C 93% 11.5 mph WNW18.5 kmh WNW 12.7 mph20.4 kmh 29.82 in1009.8 mb - 0.00 in0.0 mm 0.59 in15.0 mm
11:50 AM 52.3°F11.3°C 50.3°F10.2°C 93% 5.8 mph W9.3 kmh W 9.2 mph14.8 kmh 29.82 in1009.8 mb - 0.00 in0.0 mm 0.59 in15.0 mm
12:00 PM 52.8°F11.6°C 50.8°F10.4°C 93% 3.5 mph W5.6 kmh W 5.8 mph9.3 kmh 29.81 in1009.5 mb - 0.00 in0.0 mm 0.59 in15.0 mm
12:10 PM 53.1°F11.7°C 51.1°F10.6°C 93% 3.5 mph WSW5.6 kmh WSW 5.8 mph9.3 kmh 29.81 in1009.5 mb - 0.02 in0.5 mm 0.61 in15.5 mm
12:20 PM 53.1°F11.7°C 51.1°F10.6°C 93% 2.3 mph WSW3.7 kmh WSW 3.5 mph5.6 kmh 29.80 in1009.1 mb - 0.01 in0.3 mm 0.61 in15.5 mm
12:30 PM 53.1°F11.7°C 50.8°F10.4°C 92% 4.6 mph WSW7.4 kmh WSW 9.2 mph14.8 kmh 29.79 in1008.8 mb - 0.00 in0.0 mm 0.61 in15.5 mm
12:40 PM 53.5°F11.9°C 50.9°F10.5°C 91% 3.5 mph WSW5.6 kmh WSW 4.6 mph7.4 kmh 29.79 in1008.8 mb - 0.00 in0.0 mm 0.61 in15.5 mm
12:50 PM 54.1°F12.3°C 51.5°F10.8°C 91% 6.9 mph W11.1 kmh W 11.5 mph18.5 kmh 29.79 in1008.8 mb - 0.00 in0.0 mm 0.61 in15.5 mm
01:00 PM 53.9°F12.2°C 51.3°F10.7°C 91% 4.6 mph WSW7.4 kmh WSW 9.2 mph14.8 kmh 29.79 in1008.8 mb - 0.00 in0.0 mm 0.61 in15.5 mm
01:10 PM 53.0°F11.7°C 49.8°F9.9°C 89% 10.4 mph WSW16.7 kmh WSW 13.8 mph22.2 kmh 29.80 in1009.1 mb - 0.02 in0.5 mm 0.62 in15.7 mm
01:20 PM 51.4°F10.8°C 48.8°F9.3°C 91% 3.5 mph WSW5.6 kmh WSW 12.7 mph20.4 kmh 29.78 in1008.5 mb - 0.00 in0.0 mm 0.62 in15.7 mm
01:30 PM 51.3°F10.7°C 49.0°F9.4°C 92% 3.5 mph WSW5.6 kmh WSW 9.2 mph14.8 kmh 29.78 in1008.5 mb - 0.00 in0.0 mm 0.62 in15.7 mm
01:40 PM 51.7°F10.9°C 49.5°F9.7°C 92% 8.1 mph WNW13.0 kmh WNW 12.7 mph20.4 kmh 29.78 in1008.5 mb - 0.00 in0.0 mm 0.62 in15.7 mm
01:50 PM 52.3°F11.3°C 50.1°F10.1°C 92% 2.3 mph WSW3.7 kmh WSW 4.6 mph7.4 kmh 29.78 in1008.5 mb - 0.00 in0.0 mm 0.62 in15.7 mm
02:00 PM 52.6°F11.4°C 50.0°F10.0°C 91% 5.8 mph WSW9.3 kmh WSW 11.5 mph18.5 kmh 29.78 in1008.5 mb - 0.00 in0.0 mm 0.62 in15.7 mm
02:10 PM 52.6°F11.4°C 49.7°F9.8°C 90% 6.9 mph WSW11.1 kmh WSW 10.4 mph16.7 kmh 29.78 in1008.5 mb - 0.00 in0.0 mm 0.62 in15.7 mm
02:20 PM 52.4°F11.3°C 48.7°F9.3°C 87% 4.6 mph WSW7.4 kmh WSW 13.8 mph22.2 kmh 29.78 in1008.5 mb - 0.00 in0.0 mm 0.62 in15.7 mm
02:30 PM 53.0°F11.7°C 49.2°F9.6°C 87% 12.7 mph W20.4 kmh W 16.1 mph25.9 kmh 29.79 in1008.8 mb - 0.00 in0.0 mm 0.62 in15.7 mm
02:40 PM 53.4°F11.9°C 49.0°F9.4°C 85% 8.1 mph WNW13.0 kmh WNW 19.6 mph31.5 kmh 29.78 in1008.5 mb - 0.00 in0.0 mm 0.62 in15.7 mm
02:50 PM 53.7°F12.1°C 49.3°F9.6°C 85% 5.8 mph WSW9.3 kmh WSW 13.8 mph22.2 kmh 29.79 in1008.8 mb - 0.00 in0.0 mm 0.62 in15.7 mm
03:00 PM 53.9°F12.2°C 49.5°F9.7°C 85% 8.1 mph WSW13.0 kmh WSW 17.3 mph27.8 kmh 29.78 in1008.5 mb - 0.00 in0.0 mm 0.62 in15.7 mm
03:10 PM 53.6°F12.0°C 48.0°F8.9°C 81% 8.1 mph WSW13.0 kmh WSW 15.0 mph24.1 kmh 29.79 in1008.8 mb - 0.00 in0.0 mm 0.62 in15.7 mm
03:20 PM 52.8°F11.6°C 47.8°F8.8°C 83% 6.9 mph WSW11.1 kmh WSW 11.5 mph18.5 kmh 29.79 in1008.8 mb - 0.00 in0.0 mm 0.62 in15.7 mm
03:30 PM 52.6°F11.4°C 47.6°F8.7°C 83% 4.6 mph WSW7.4 kmh WSW 11.5 mph18.5 kmh 29.79 in1008.8 mb - 0.00 in0.0 mm 0.62 in15.7 mm
03:40 PM 52.8°F11.6°C 47.4°F8.6°C 82% 6.9 mph WSW11.1 kmh WSW 13.8 mph22.2 kmh 29.79 in1008.8 mb - 0.00 in0.0 mm 0.62 in15.7 mm
03:50 PM 53.0°F11.7°C 47.3°F8.5°C 81% 11.5 mph W18.5 kmh W 18.4 mph29.6 kmh 29.79 in1008.8 mb - 0.00 in0.0 mm 0.62 in15.7 mm
04:00 PM 53.1°F11.7°C 47.4°F8.6°C 81% 6.9 mph WSW11.1 kmh WSW 11.5 mph18.5 kmh 29.79 in1008.8 mb - 0.00 in0.0 mm 0.62 in15.7 mm
04:10 PM 53.5°F11.9°C 47.8°F8.8°C 81% 6.9 mph WSW11.1 kmh WSW 15.0 mph24.1 kmh 29.79 in1008.8 mb - 0.00 in0.0 mm 0.62 in15.7 mm
04:20 PM 53.9°F12.2°C 48.2°F9.0°C 81% 6.9 mph W11.1 kmh W 12.7 mph20.4 kmh 29.79 in1008.8 mb - 0.00 in0.0 mm 0.62 in15.7 mm
04:30 PM 53.4°F11.9°C 47.0°F8.3°C 79% 6.9 mph WSW11.1 kmh WSW 9.2 mph14.8 kmh 29.80 in1009.1 mb - 0.00 in0.0 mm 0.62 in15.7 mm
04:40 PM 52.8°F11.6°C 46.1°F7.8°C 78% 11.5 mph W18.5 kmh W 16.1 mph25.9 kmh 29.80 in1009.1 mb - 0.00 in0.0 mm 0.62 in15.7 mm
04:50 PM 52.6°F11.4°C 46.6°F8.1°C 80% 8.1 mph WSW13.0 kmh WSW 20.7 mph33.3 kmh 29.80 in1009.1 mb - 0.00 in0.0 mm 0.62 in15.7 mm
05:00 PM 50.4°F10.2°C 45.2°F7.3°C 82% 4.6 mph WSW7.4 kmh WSW 4.6 mph7.4 kmh 29.81 in1009.5 mb - 0.00 in0.0 mm 0.62 in15.7 mm
05:10 PM 49.8°F9.9°C 45.2°F7.3°C 84% 1.2 mph WSW1.9 kmh WSW 3.5 mph5.6 kmh 29.81 in1009.5 mb - 0.00 in0.0 mm 0.62 in15.7 mm
05:20 PM 49.7°F9.8°C 45.7°F7.6°C 86% 1.2 mph WSW1.9 kmh WSW 3.5 mph5.6 kmh 29.81 in1009.5 mb - 0.00 in0.0 mm 0.62 in15.7 mm
05:30 PM 50.1°F10.1°C 45.7°F7.6°C 85% 4.6 mph WSW7.4 kmh WSW 6.9 mph11.1 kmh 29.80 in1009.1 mb - 0.00 in0.0 mm 0.62 in15.7 mm
05:40 PM 50.6°F10.3°C 45.3°F7.4°C 82% 4.6 mph WSW7.4 kmh WSW 12.7 mph20.4 kmh 29.80 in1009.1 mb - 0.00 in0.0 mm 0.62 in15.7 mm
05:50 PM 48.7°F9.3°C 45.0°F7.2°C 87% 10.4 mph WSW16.7 kmh WSW 15.0 mph24.1 kmh 29.82 in1009.8 mb - 0.00 in0.0 mm 0.62 in15.7 mm
06:00 PM 48.4°F9.1°C 45.6°F7.6°C 90% 8.1 mph SW13.0 kmh SW 10.4 mph16.7 kmh 29.82 in1009.8 mb - 0.01 in0.3 mm 0.63 in16.0 mm
06:10 PM 48.6°F9.2°C 45.8°F7.7°C 90% 2.3 mph W3.7 kmh W 3.5 mph5.6 kmh 29.83 in1010.2 mb - 0.00 in0.0 mm 0.63 in16.0 mm
06:20 PM 48.6°F9.2°C 45.5°F7.5°C 89% 2.3 mph WSW3.7 kmh WSW 3.5 mph5.6 kmh 29.83 in1010.2 mb - 0.00 in0.0 mm 0.63 in16.0 mm
06:30 PM 48.3°F9.1°C 43.7°F6.5°C 84% 3.5 mph WSW5.6 kmh WSW 8.1 mph13.0 kmh 29.83 in1010.2 mb - 0.00 in0.0 mm 0.63 in16.0 mm
06:40 PM 48.4°F9.1°C 43.5°F6.4°C 83% 5.8 mph W9.3 kmh W 9.2 mph14.8 kmh 29.84 in1010.5 mb - 0.00 in0.0 mm 0.63 in16.0 mm
06:50 PM 48.6°F9.2°C 44.0°F6.7°C 84% 3.5 mph W5.6 kmh W 9.2 mph14.8 kmh 29.84 in1010.5 mb - 0.00 in0.0 mm 0.63 in16.0 mm
07:00 PM 48.9°F9.4°C 43.9°F6.6°C 83% 6.9 mph W11.1 kmh W 11.5 mph18.5 kmh 29.84 in1010.5 mb - 0.00 in0.0 mm 0.63 in16.0 mm
07:10 PM 49.4°F9.7°C 44.8°F7.1°C 84% 4.6 mph W7.4 kmh W 3.5 mph5.6 kmh 29.84 in1010.5 mb - 0.00 in0.0 mm 0.63 in16.0 mm
07:20 PM 48.6°F9.2°C 42.7°F5.9°C 80% 5.8 mph W9.3 kmh W 11.5 mph18.5 kmh 29.84 in1010.5 mb - 0.00 in0.0 mm 0.63 in16.0 mm
07:30 PM 48.4°F9.1°C 41.9°F5.5°C 78% 1.2 mph WSW1.9 kmh WSW 3.5 mph5.6 kmh 29.84 in1010.5 mb - 0.00 in0.0 mm 0.63 in16.0 mm
07:40 PM 48.2°F9.0°C 41.7°F5.4°C 78% 2.3 mph WSW3.7 kmh WSW 5.8 mph9.3 kmh 29.84 in1010.5 mb - 0.00 in0.0 mm 0.63 in16.0 mm
07:50 PM 48.2°F9.0°C 41.7°F5.4°C 78% 3.5 mph WSW5.6 kmh WSW 9.2 mph14.8 kmh 29.85 in1010.8 mb - 0.00 in0.0 mm 0.63 in16.0 mm
08:00 PM 48.5°F9.2°C 42.6°F5.9°C 80% 5.8 mph WNW9.3 kmh WNW 10.4 mph16.7 kmh 29.86 in1011.2 mb - 0.00 in0.0 mm 0.63 in16.0 mm
08:10 PM 48.7°F9.3°C 43.5°F6.4°C 82% 6.9 mph WSW11.1 kmh WSW 11.5 mph18.5 kmh 29.86 in1011.2 mb - 0.00 in0.0 mm 0.63 in16.0 mm
08:20 PM 48.2°F9.0°C 43.9°F6.6°C 85% 1.2 mph NW1.9 kmh NW 3.5 mph5.6 kmh 29.85 in1010.8 mb - 0.02 in0.5 mm 0.65 in16.5 mm
08:30 PM 47.3°F8.5°C 42.7°F5.9°C 84% 8.1 mph W13.0 kmh W 10.4 mph16.7 kmh 29.85 in1010.8 mb - 0.00 in0.0 mm 0.65 in16.5 mm
08:40 PM 47.4°F8.6°C 42.5°F5.8°C 83% 2.3 mph WSW3.7 kmh WSW 4.6 mph7.4 kmh 29.85 in1010.8 mb - 0.00 in0.0 mm 0.65 in16.5 mm
08:50 PM 47.6°F8.7°C 42.7°F5.9°C 83% 1.2 mph WSW1.9 kmh WSW 2.3 mph3.7 kmh 29.85 in1010.8 mb - 0.00 in0.0 mm 0.65 in16.5 mm
09:00 PM 47.8°F8.8°C 43.2°F6.2°C 84% 1.2 mph WSW1.9 kmh WSW 3.5 mph5.6 kmh 29.86 in1011.2 mb - 0.00 in0.0 mm 0.65 in16.5 mm
09:10 PM 47.4°F8.6°C 43.2°F6.2°C 85% 9.2 mph WSW14.8 kmh WSW 15.0 mph24.1 kmh 29.86 in1011.2 mb - 0.02 in0.5 mm 0.66 in16.8 mm
09:20 PM 46.6°F8.1°C 42.9°F6.1°C 87% 2.3 mph WSW3.7 kmh WSW 3.5 mph5.6 kmh 29.86 in1011.2 mb - 0.00 in0.0 mm 0.66 in16.8 mm
09:30 PM 46.4°F8.0°C 43.3°F6.3°C 89% 9.2 mph WSW14.8 kmh WSW 15.0 mph24.1 kmh 29.86 in1011.2 mb - 0.00 in0.0 mm 0.66 in16.8 mm
09:40 PM 47.2°F8.4°C 44.1°F6.7°C 89% 10.4 mph WSW16.7 kmh WSW 13.8 mph22.2 kmh 29.87 in1011.5 mb - 0.00 in0.0 mm 0.66 in16.8 mm
09:50 PM 47.4°F8.6°C 43.4°F6.3°C 86% 10.4 mph WSW16.7 kmh WSW 19.6 mph31.5 kmh 29.87 in1011.5 mb - 0.00 in0.0 mm 0.66 in16.8 mm
10:00 PM 47.8°F8.8°C 43.8°F6.6°C 86% 12.7 mph W20.4 kmh W 16.1 mph25.9 kmh 29.87 in1011.5 mb - 0.00 in0.0 mm 0.66 in16.8 mm
10:10 PM 47.9°F8.8°C 43.0°F6.1°C 83% 12.7 mph W20.4 kmh W 19.6 mph31.5 kmh 29.87 in1011.5 mb - 0.00 in0.0 mm 0.66 in16.8 mm
10:20 PM 47.6°F8.7°C 43.0°F6.1°C 84% 9.2 mph W14.8 kmh W 15.0 mph24.1 kmh 29.87 in1011.5 mb - 0.00 in0.0 mm 0.66 in16.8 mm
10:30 PM 47.4°F8.6°C 42.5°F5.8°C 83% 10.4 mph WSW16.7 kmh WSW 18.4 mph29.6 kmh 29.88 in1011.9 mb - 0.00 in0.0 mm 0.66 in16.8 mm
10:40 PM 47.6°F8.7°C 42.7°F5.9°C 83% 9.2 mph WSW14.8 kmh WSW 15.0 mph24.1 kmh 29.88 in1011.9 mb - 0.00 in0.0 mm 0.66 in16.8 mm
10:50 PM 47.9°F8.8°C 43.3°F6.3°C 84% 9.2 mph W14.8 kmh W 11.5 mph18.5 kmh 29.88 in1011.9 mb - 0.00 in0.0 mm 0.66 in16.8 mm
11:00 PM 48.1°F8.9°C 43.5°F6.4°C 84% 6.9 mph WSW11.1 kmh WSW 10.4 mph16.7 kmh 29.88 in1011.9 mb - 0.00 in0.0 mm 0.66 in16.8 mm
11:10 PM 47.9°F8.8°C 43.0°F6.1°C 83% 13.8 mph WSW22.2 kmh WSW 19.6 mph31.5 kmh 29.89 in1012.2 mb - 0.00 in0.0 mm 0.66 in16.8 mm
11:20 PM 46.4°F8.0°C 42.7°F5.9°C 87% 16.1 mph WSW25.9 kmh WSW 20.7 mph33.3 kmh 29.90 in1012.5 mb - 0.03 in0.8 mm 0.69 in17.5 mm
11:30 PM 45.4°F7.4°C 42.3°F5.7°C 89% 8.1 mph NW13.0 kmh NW 11.5 mph18.5 kmh 29.89 in1012.2 mb - 0.02 in0.5 mm 0.72 in18.3 mm
11:40 PM 44.9°F7.2°C 42.1°F5.6°C 90% 4.6 mph WSW7.4 kmh WSW 5.8 mph9.3 kmh 29.88 in1011.9 mb - 0.01 in0.3 mm 0.72 in18.3 mm
11:50 PM 44.6°F7.0°C 42.1°F5.6°C 91% 4.6 mph NW7.4 kmh NW 4.6 mph7.4 kmh 29.88 in1011.9 mb - 0.00 in0.0 mm 0.72 in18.3 mm